sensor_id;sensor_type;location;lat;lon;timestamp;temperature;humidity
78767;SHT31;68092;51.982;5.680;2024-01-27T00:00:05;9.5;55.4
78767;SHT31;68092;51.982;5.680;2024-01-27T00:02:34;9.5;55.5
78767;SHT31;68092;51.982;5.680;2024-01-27T00:05:02;9.4;56.2
78767;SHT31;68092;51.982;5.680;2024-01-27T00:07:31;9.4;55.8
78767;SHT31;68092;51.982;5.680;2024-01-27T00:10:01;9.4;55.6
78767;SHT31;68092;51.982;5.680;2024-01-27T00:12:29;9.4;55.5
78767;SHT31;68092;51.982;5.680;2024-01-27T00:14:58;9.4;55.5
78767;SHT31;68092;51.982;5.680;2024-01-27T00:17:26;9.4;55.8
78767;SHT31;68092;51.982;5.680;2024-01-27T00:19:55;9.4;55.4
78767;SHT31;68092;51.982;5.680;2024-01-27T00:22:23;9.4;55.3
78767;SHT31;68092;51.982;5.680;2024-01-27T00:24:52;9.4;55.3
78767;SHT31;68092;51.982;5.680;2024-01-27T00:27:20;9.4;55.5
78767;SHT31;68092;51.982;5.680;2024-01-27T00:29:49;9.4;55.2
78767;SHT31;68092;51.982;5.680;2024-01-27T00:32:17;9.4;55.2
78767;SHT31;68092;51.982;5.680;2024-01-27T00:34:46;9.3;55.5
78767;SHT31;68092;51.982;5.680;2024-01-27T00:37:14;9.3;55.5
78767;SHT31;68092;51.982;5.680;2024-01-27T00:39:44;9.3;55.4
78767;SHT31;68092;51.982;5.680;2024-01-27T00:42:13;9.3;55.3
78767;SHT31;68092;51.982;5.680;2024-01-27T00:44:42;9.3;55.2
78767;SHT31;68092;51.982;5.680;2024-01-27T00:47:11;9.3;55.2
78767;SHT31;68092;51.982;5.680;2024-01-27T00:49:39;9.3;55.2
78767;SHT31;68092;51.982;5.680;2024-01-27T00:52:08;9.3;55.2
78767;SHT31;68092;51.982;5.680;2024-01-27T00:54:36;9.2;55.3
78767;SHT31;68092;51.982;5.680;2024-01-27T00:57:05;9.2;55.5
78767;SHT31;68092;51.982;5.680;2024-01-27T00:59:33;9.2;55.3
78767;SHT31;68092;51.982;5.680;2024-01-27T01:02:03;9.2;54.8
78767;SHT31;68092;51.982;5.680;2024-01-27T01:04:31;9.2;55.0
78767;SHT31;68092;51.982;5.680;2024-01-27T01:07:00;9.2;55.0
78767;SHT31;68092;51.982;5.680;2024-01-27T01:09:29;9.1;55.2
78767;SHT31;68092;51.982;5.680;2024-01-27T01:11:58;9.1;54.7
78767;SHT31;68092;51.982;5.680;2024-01-27T01:14:26;9.1;54.9
78767;SHT31;68092;51.982;5.680;2024-01-27T01:16:55;9.1;54.8
78767;SHT31;68092;51.982;5.680;2024-01-27T01:19:25;9.1;54.7
78767;SHT31;68092;51.982;5.680;2024-01-27T01:21:54;9.1;54.8
78767;SHT31;68092;51.982;5.680;2024-01-27T01:24:22;9.0;55.0
78767;SHT31;68092;51.982;5.680;2024-01-27T01:26:51;9.0;55.0
78767;SHT31;68092;51.982;5.680;2024-01-27T01:29:19;9.0;54.9
78767;SHT31;68092;51.982;5.680;2024-01-27T01:31:49;9.0;55.1
78767;SHT31;68092;51.982;5.680;2024-01-27T01:34:17;9.0;55.1
78767;SHT31;68092;51.982;5.680;2024-01-27T01:36:46;9.0;54.9
78767;SHT31;68092;51.982;5.680;2024-01-27T01:39:16;9.0;55.1
78767;SHT31;68092;51.982;5.680;2024-01-27T01:41:44;8.9;55.0
78767;SHT31;68092;51.982;5.680;2024-01-27T01:44:13;8.9;54.8
78767;SHT31;68092;51.982;5.680;2024-01-27T01:46:42;8.9;54.8
78767;SHT31;68092;51.982;5.680;2024-01-27T01:49:11;8.9;54.9
78767;SHT31;68092;51.982;5.680;2024-01-27T01:51:39;8.9;54.8
78767;SHT31;68092;51.982;5.680;2024-01-27T01:54:08;8.9;55.0
78767;SHT31;68092;51.982;5.680;2024-01-27T01:56:40;8.9;55.1
78767;SHT31;68092;51.982;5.680;2024-01-27T01:59:10;8.8;55.0
78767;SHT31;68092;51.982;5.680;2024-01-27T02:01:38;8.8;55.0
78767;SHT31;68092;51.982;5.680;2024-01-27T02:04:07;8.8;55.2
78767;SHT31;68092;51.982;5.680;2024-01-27T02:06:37;8.8;55.3
78767;SHT31;68092;51.982;5.680;2024-01-27T02:09:06;8.8;55.3
78767;SHT31;68092;51.982;5.680;2024-01-27T02:11:36;8.8;55.2
78767;SHT31;68092;51.982;5.680;2024-01-27T02:14:05;8.7;54.6
78767;SHT31;68092;51.982;5.680;2024-01-27T02:16:34;8.7;54.8
78767;SHT31;68092;51.982;5.680;2024-01-27T02:19:03;8.7;54.7
78767;SHT31;68092;51.982;5.680;2024-01-27T02:21:31;8.7;54.4
78767;SHT31;68092;51.982;5.680;2024-01-27T02:24:00;8.7;54.4
78767;SHT31;68092;51.982;5.680;2024-01-27T02:26:29;8.7;54.1
78767;SHT31;68092;51.982;5.680;2024-01-27T02:28:57;8.7;53.9
78767;SHT31;68092;51.982;5.680;2024-01-27T02:31:26;8.6;53.5
78767;SHT31;68092;51.982;5.680;2024-01-27T02:33:55;8.6;53.3
78767;SHT31;68092;51.982;5.680;2024-01-27T02:36:23;8.6;53.8
78767;SHT31;68092;51.982;5.680;2024-01-27T02:38:51;8.6;54.2
78767;SHT31;68092;51.982;5.680;2024-01-27T02:41:20;8.5;53.8
78767;SHT31;68092;51.982;5.680;2024-01-27T02:43:48;8.5;53.6
78767;SHT31;68092;51.982;5.680;2024-01-27T02:46:17;8.5;53.7
78767;SHT31;68092;51.982;5.680;2024-01-27T02:48:46;8.4;53.9
78767;SHT31;68092;51.982;5.680;2024-01-27T02:51:18;8.4;53.9
78767;SHT31;68092;51.982;5.680;2024-01-27T02:53:47;8.4;54.0
78767;SHT31;68092;51.982;5.680;2024-01-27T02:56:17;8.4;53.8
78767;SHT31;68092;51.982;5.680;2024-01-27T02:58:46;8.4;53.3
78767;SHT31;68092;51.982;5.680;2024-01-27T03:01:15;8.3;53.7
78767;SHT31;68092;51.982;5.680;2024-01-27T03:03:43;8.3;53.7
78767;SHT31;68092;51.982;5.680;2024-01-27T03:06:12;8.3;53.5
78767;SHT31;68092;51.982;5.680;2024-01-27T03:08:40;8.3;53.5
78767;SHT31;68092;51.982;5.680;2024-01-27T03:11:09;8.2;53.9
78767;SHT31;68092;51.982;5.680;2024-01-27T03:13:37;8.2;53.7
78767;SHT31;68092;51.982;5.680;2024-01-27T03:16:11;8.2;53.5
78767;SHT31;68092;51.982;5.680;2024-01-27T03:18:43;8.2;54.0
78767;SHT31;68092;51.982;5.680;2024-01-27T03:21:13;8.1;54.3
78767;SHT31;68092;51.982;5.680;2024-01-27T03:23:42;8.1;54.8
78767;SHT31;68092;51.982;5.680;2024-01-27T03:26:10;8.1;55.2
78767;SHT31;68092;51.982;5.680;2024-01-27T03:28:39;8.1;55.3
78767;SHT31;68092;51.982;5.680;2024-01-27T03:31:09;8.1;55.6
78767;SHT31;68092;51.982;5.680;2024-01-27T03:33:40;8.1;55.6
78767;SHT31;68092;51.982;5.680;2024-01-27T03:36:11;8.1;55.7
78767;SHT31;68092;51.982;5.680;2024-01-27T03:38:41;8.1;55.5
78767;SHT31;68092;51.982;5.680;2024-01-27T03:41:11;8.0;55.6
78767;SHT31;68092;51.982;5.680;2024-01-27T03:43:40;8.0;55.9
78767;SHT31;68092;51.982;5.680;2024-01-27T03:46:08;8.0;56.1
78767;SHT31;68092;51.982;5.680;2024-01-27T03:48:37;8.0;55.9
78767;SHT31;68092;51.982;5.680;2024-01-27T03:51:05;8.0;55.9
78767;SHT31;68092;51.982;5.680;2024-01-27T03:53:34;8.0;55.6
78767;SHT31;68092;51.982;5.680;2024-01-27T03:56:05;8.0;55.7
78767;SHT31;68092;51.982;5.680;2024-01-27T03:58:33;8.0;55.7
78767;SHT31;68092;51.982;5.680;2024-01-27T04:01:02;8.0;55.4
78767;SHT31;68092;51.982;5.680;2024-01-27T04:03:30;8.0;55.7
78767;SHT31;68092;51.982;5.680;2024-01-27T04:05:59;8.0;55.9
78767;SHT31;68092;51.982;5.680;2024-01-27T04:08:30;8.0;55.5
78767;SHT31;68092;51.982;5.680;2024-01-27T04:10:59;8.0;55.3
78767;SHT31;68092;51.982;5.680;2024-01-27T04:13:27;8.0;55.2
78767;SHT31;68092;51.982;5.680;2024-01-27T04:15:56;8.0;55.1
78767;SHT31;68092;51.982;5.680;2024-01-27T04:18:27;8.0;55.3
78767;SHT31;68092;51.982;5.680;2024-01-27T04:20:56;8.0;55.3
78767;SHT31;68092;51.982;5.680;2024-01-27T04:23:26;8.0;55.2
78767;SHT31;68092;51.982;5.680;2024-01-27T04:25:55;8.0;55.1
78767;SHT31;68092;51.982;5.680;2024-01-27T04:28:23;7.9;55.5
78767;SHT31;68092;51.982;5.680;2024-01-27T04:30:52;7.9;55.1
78767;SHT31;68092;51.982;5.680;2024-01-27T04:33:21;7.9;55.1
78767;SHT31;68092;51.982;5.680;2024-01-27T04:35:49;7.9;55.3
78767;SHT31;68092;51.982;5.680;2024-01-27T04:38:18;7.9;55.3
78767;SHT31;68092;51.982;5.680;2024-01-27T04:40:48;7.9;55.0
78767;SHT31;68092;51.982;5.680;2024-01-27T04:43:18;7.8;55.0
78767;SHT31;68092;51.982;5.680;2024-01-27T04:45:48;7.8;55.0
78767;SHT31;68092;51.982;5.680;2024-01-27T04:48:17;7.8;54.7
78767;SHT31;68092;51.982;5.680;2024-01-27T04:50:45;7.8;54.8
78767;SHT31;68092;51.982;5.680;2024-01-27T04:53:15;7.8;54.7
78767;SHT31;68092;51.982;5.680;2024-01-27T04:55:43;7.8;54.6
78767;SHT31;68092;51.982;5.680;2024-01-27T04:58:12;7.7;54.9
78767;SHT31;68092;51.982;5.680;2024-01-27T05:00:41;7.7;55.2
78767;SHT31;68092;51.982;5.680;2024-01-27T05:03:11;7.7;55.1
78767;SHT31;68092;51.982;5.680;2024-01-27T05:05:43;7.7;55.0
78767;SHT31;68092;51.982;5.680;2024-01-27T05:08:11;7.7;54.9
78767;SHT31;68092;51.982;5.680;2024-01-27T05:10:40;7.7;54.6
78767;SHT31;68092;51.982;5.680;2024-01-27T05:13:09;7.7;54.9
78767;SHT31;68092;51.982;5.680;2024-01-27T05:15:37;7.7;54.8
78767;SHT31;68092;51.982;5.680;2024-01-27T05:18:06;7.7;54.7
78767;SHT31;68092;51.982;5.680;2024-01-27T05:20:36;7.7;54.9
78767;SHT31;68092;51.982;5.680;2024-01-27T05:23:05;7.6;55.1
78767;SHT31;68092;51.982;5.680;2024-01-27T05:25:34;7.6;55.4
78767;SHT31;68092;51.982;5.680;2024-01-27T05:28:02;7.6;55.2
78767;SHT31;68092;51.982;5.680;2024-01-27T05:30:31;7.6;55.4
78767;SHT31;68092;51.982;5.680;2024-01-27T05:32:59;7.6;55.4
78767;SHT31;68092;51.982;5.680;2024-01-27T05:35:28;7.6;55.9
78767;SHT31;68092;51.982;5.680;2024-01-27T05:37:57;7.6;55.8
78767;SHT31;68092;51.982;5.680;2024-01-27T05:40:25;7.6;56.0
78767;SHT31;68092;51.982;5.680;2024-01-27T05:42:54;7.6;56.1
78767;SHT31;68092;51.982;5.680;2024-01-27T05:45:22;7.6;56.3
78767;SHT31;68092;51.982;5.680;2024-01-27T05:47:52;7.6;56.3
78767;SHT31;68092;51.982;5.680;2024-01-27T05:50:23;7.6;56.0
78767;SHT31;68092;51.982;5.680;2024-01-27T05:52:51;7.6;56.1
78767;SHT31;68092;51.982;5.680;2024-01-27T05:55:20;7.6;56.2
78767;SHT31;68092;51.982;5.680;2024-01-27T05:57:49;7.6;55.8
78767;SHT31;68092;51.982;5.680;2024-01-27T06:00:20;7.6;55.6
78767;SHT31;68092;51.982;5.680;2024-01-27T06:02:50;7.6;55.5
78767;SHT31;68092;51.982;5.680;2024-01-27T06:05:19;7.6;55.5
78767;SHT31;68092;51.982;5.680;2024-01-27T06:07:48;7.6;55.4
78767;SHT31;68092;51.982;5.680;2024-01-27T06:10:16;7.6;55.4
78767;SHT31;68092;51.982;5.680;2024-01-27T06:12:46;7.6;55.6
78767;SHT31;68092;51.982;5.680;2024-01-27T06:15:17;7.6;55.3
78767;SHT31;68092;51.982;5.680;2024-01-27T06:17:45;7.5;55.3
78767;SHT31;68092;51.982;5.680;2024-01-27T06:20:15;7.5;55.1
78767;SHT31;68092;51.982;5.680;2024-01-27T06:22:45;7.5;55.0
78767;SHT31;68092;51.982;5.680;2024-01-27T06:25:14;7.5;55.2
78767;SHT31;68092;51.982;5.680;2024-01-27T06:27:43;7.5;55.0
78767;SHT31;68092;51.982;5.680;2024-01-27T06:30:12;7.5;54.6
78767;SHT31;68092;51.982;5.680;2024-01-27T06:32:41;7.5;54.5
78767;SHT31;68092;51.982;5.680;2024-01-27T06:35:10;7.5;54.6
78767;SHT31;68092;51.982;5.680;2024-01-27T06:37:40;7.4;54.9
78767;SHT31;68092;51.982;5.680;2024-01-27T06:40:10;7.4;54.8
78767;SHT31;68092;51.982;5.680;2024-01-27T06:42:39;7.4;54.9
78767;SHT31;68092;51.982;5.680;2024-01-27T06:45:08;7.4;54.6
78767;SHT31;68092;51.982;5.680;2024-01-27T06:47:36;7.4;54.6
78767;SHT31;68092;51.982;5.680;2024-01-27T06:50:06;7.3;54.8
78767;SHT31;68092;51.982;5.680;2024-01-27T06:52:34;7.3;55.2
78767;SHT31;68092;51.982;5.680;2024-01-27T06:55:03;7.3;55.0
78767;SHT31;68092;51.982;5.680;2024-01-27T06:57:33;7.3;54.9
78767;SHT31;68092;51.982;5.680;2024-01-27T07:00:02;7.3;54.7
78767;SHT31;68092;51.982;5.680;2024-01-27T07:02:31;7.3;55.0
78767;SHT31;68092;51.982;5.680;2024-01-27T07:04:59;7.3;55.1
78767;SHT31;68092;51.982;5.680;2024-01-27T07:07:28;7.3;55.2
78767;SHT31;68092;51.982;5.680;2024-01-27T07:09:58;7.3;55.1
78767;SHT31;68092;51.982;5.680;2024-01-27T07:12:26;7.3;55.7
78767;SHT31;68092;51.982;5.680;2024-01-27T07:14:55;7.3;56.1
78767;SHT31;68092;51.982;5.680;2024-01-27T07:17:26;7.2;55.7
78767;SHT31;68092;51.982;5.680;2024-01-27T07:19:55;7.2;55.9
78767;SHT31;68092;51.982;5.680;2024-01-27T07:22:24;7.2;56.1
78767;SHT31;68092;51.982;5.680;2024-01-27T07:24:54;7.2;56.2
78767;SHT31;68092;51.982;5.680;2024-01-27T07:27:23;7.2;56.1
78767;SHT31;68092;51.982;5.680;2024-01-27T07:29:51;7.2;56.0
78767;SHT31;68092;51.982;5.680;2024-01-27T07:32:20;7.2;55.9
78767;SHT31;68092;51.982;5.680;2024-01-27T07:34:48;7.2;56.4
78767;SHT31;68092;51.982;5.680;2024-01-27T07:37:17;7.2;56.3
78767;SHT31;68092;51.982;5.680;2024-01-27T07:39:47;7.2;56.5
78767;SHT31;68092;51.982;5.680;2024-01-27T07:42:18;7.2;56.6
78767;SHT31;68092;51.982;5.680;2024-01-27T07:44:47;7.2;56.5
78767;SHT31;68092;51.982;5.680;2024-01-27T07:47:15;7.1;56.9
78767;SHT31;68092;51.982;5.680;2024-01-27T07:49:44;7.1;56.8
78767;SHT31;68092;51.982;5.680;2024-01-27T07:52:15;7.1;57.0
78767;SHT31;68092;51.982;5.680;2024-01-27T07:54:44;7.1;57.3
78767;SHT31;68092;51.982;5.680;2024-01-27T07:57:13;7.1;57.0
78767;SHT31;68092;51.982;5.680;2024-01-27T07:59:42;7.1;57.6
78767;SHT31;68092;51.982;5.680;2024-01-27T08:02:11;7.2;57.5
78767;SHT31;68092;51.982;5.680;2024-01-27T08:04:39;7.2;57.7
78767;SHT31;68092;51.982;5.680;2024-01-27T08:07:08;7.2;58.5
78767;SHT31;68092;51.982;5.680;2024-01-27T08:09:38;7.2;58.7
78767;SHT31;68092;51.982;5.680;2024-01-27T08:12:07;7.2;59.0
78767;SHT31;68092;51.982;5.680;2024-01-27T08:14:35;7.2;58.7
78767;SHT31;68092;51.982;5.680;2024-01-27T08:17:04;7.2;59.2
78767;SHT31;68092;51.982;5.680;2024-01-27T08:19:33;7.3;59.3
78767;SHT31;68092;51.982;5.680;2024-01-27T08:22:01;7.3;59.2
78767;SHT31;68092;51.982;5.680;2024-01-27T08:24:30;7.3;59.2
78767;SHT31;68092;51.982;5.680;2024-01-27T08:26:59;7.4;59.3
78767;SHT31;68092;51.982;5.680;2024-01-27T08:29:27;7.4;59.4
78767;SHT31;68092;51.982;5.680;2024-01-27T08:31:56;7.4;59.4
78767;SHT31;68092;51.982;5.680;2024-01-27T08:34:25;7.5;59.8
78767;SHT31;68092;51.982;5.680;2024-01-27T08:36:53;7.5;59.6
78767;SHT31;68092;51.982;5.680;2024-01-27T08:39:25;7.5;59.7
78767;SHT31;68092;51.982;5.680;2024-01-27T08:41:53;7.6;59.7
78767;SHT31;68092;51.982;5.680;2024-01-27T08:44:22;7.6;59.9
78767;SHT31;68092;51.982;5.680;2024-01-27T08:46:50;7.6;60.2
78767;SHT31;68092;51.982;5.680;2024-01-27T08:49:19;7.6;60.0
78767;SHT31;68092;51.982;5.680;2024-01-27T08:51:47;7.7;60.1
78767;SHT31;68092;51.982;5.680;2024-01-27T08:54:16;7.7;60.1
78767;SHT31;68092;51.982;5.680;2024-01-27T08:56:44;7.7;60.2
78767;SHT31;68092;51.982;5.680;2024-01-27T08:59:13;7.7;60.4
78767;SHT31;68092;51.982;5.680;2024-01-27T09:01:41;7.7;60.4
78767;SHT31;68092;51.982;5.680;2024-01-27T09:04:10;7.8;60.3
78767;SHT31;68092;51.982;5.680;2024-01-27T09:06:38;7.8;60.2
78767;SHT31;68092;51.982;5.680;2024-01-27T09:09:07;7.8;60.8
78767;SHT31;68092;51.982;5.680;2024-01-27T09:11:36;7.8;60.9
78767;SHT31;68092;51.982;5.680;2024-01-27T09:14:04;7.9;61.2
78767;SHT31;68092;51.982;5.680;2024-01-27T09:16:34;7.9;61.0
78767;SHT31;68092;51.982;5.680;2024-01-27T09:19:02;8.0;60.8
78767;SHT31;68092;51.982;5.680;2024-01-27T09:21:31;8.0;60.9
78767;SHT31;68092;51.982;5.680;2024-01-27T09:24:00;8.0;60.7
78767;SHT31;68092;51.982;5.680;2024-01-27T09:26:30;8.1;60.7
78767;SHT31;68092;51.982;5.680;2024-01-27T09:28:59;8.1;60.8
78767;SHT31;68092;51.982;5.680;2024-01-27T09:31:27;8.1;61.0
78767;SHT31;68092;51.982;5.680;2024-01-27T09:33:56;8.2;61.0
78767;SHT31;68092;51.982;5.680;2024-01-27T09:36:25;8.2;60.9
78767;SHT31;68092;51.982;5.680;2024-01-27T09:38:54;8.3;60.9
78767;SHT31;68092;51.982;5.680;2024-01-27T09:41:24;8.3;60.9
78767;SHT31;68092;51.982;5.680;2024-01-27T09:43:59;8.4;60.7
78767;SHT31;68092;51.982;5.680;2024-01-27T09:46:34;8.4;60.7
78767;SHT31;68092;51.982;5.680;2024-01-27T09:49:03;8.5;60.7
78767;SHT31;68092;51.982;5.680;2024-01-27T09:51:33;8.5;60.7
78767;SHT31;68092;51.982;5.680;2024-01-27T09:54:02;8.6;60.8
78767;SHT31;68092;51.982;5.680;2024-01-27T09:56:31;8.6;60.7
78767;SHT31;68092;51.982;5.680;2024-01-27T09:59:01;8.6;60.5
78767;SHT31;68092;51.982;5.680;2024-01-27T10:01:31;8.7;60.6
78767;SHT31;68092;51.982;5.680;2024-01-27T10:04:01;8.7;60.4
78767;SHT31;68092;51.982;5.680;2024-01-27T10:06:30;8.8;60.5
78767;SHT31;68092;51.982;5.680;2024-01-27T10:08:59;8.8;60.1
78767;SHT31;68092;51.982;5.680;2024-01-27T10:11:28;8.8;60.0
78767;SHT31;68092;51.982;5.680;2024-01-27T10:13:59;8.8;60.0
78767;SHT31;68092;51.982;5.680;2024-01-27T10:16:28;8.9;60.2
78767;SHT31;68092;51.982;5.680;2024-01-27T10:19:02;8.9;60.2
78767;SHT31;68092;51.982;5.680;2024-01-27T10:21:31;8.9;60.3
78767;SHT31;68092;51.982;5.680;2024-01-27T10:24:01;9.0;60.1
78767;SHT31;68092;51.982;5.680;2024-01-27T10:26:33;9.0;60.0
78767;SHT31;68092;51.982;5.680;2024-01-27T10:29:02;9.0;59.9
78767;SHT31;68092;51.982;5.680;2024-01-27T10:31:33;9.1;59.8
78767;SHT31;68092;51.982;5.680;2024-01-27T10:34:02;9.1;59.7
78767;SHT31;68092;51.982;5.680;2024-01-27T10:36:42;9.2;59.9
78767;SHT31;68092;51.982;5.680;2024-01-27T10:39:19;9.2;59.6
78767;SHT31;68092;51.982;5.680;2024-01-27T10:41:50;9.2;59.3
78767;SHT31;68092;51.982;5.680;2024-01-27T10:44:20;9.3;59.3
78767;SHT31;68092;51.982;5.680;2024-01-27T10:46:49;9.3;59.2
78767;SHT31;68092;51.982;5.680;2024-01-27T10:49:20;9.3;59.0
78767;SHT31;68092;51.982;5.680;2024-01-27T10:51:54;9.3;59.2
78767;SHT31;68092;51.982;5.680;2024-01-27T10:54:26;9.4;59.1
78767;SHT31;68092;51.982;5.680;2024-01-27T10:56:57;9.4;59.2
78767;SHT31;68092;51.982;5.680;2024-01-27T10:59:27;9.4;59.0
78767;SHT31;68092;51.982;5.680;2024-01-27T11:01:56;9.5;59.1
78767;SHT31;68092;51.982;5.680;2024-01-27T11:04:26;9.5;59.2
78767;SHT31;68092;51.982;5.680;2024-01-27T11:07:00;9.5;59.3
78767;SHT31;68092;51.982;5.680;2024-01-27T11:09:30;9.5;59.3
78767;SHT31;68092;51.982;5.680;2024-01-27T11:12:01;9.5;59.4
78767;SHT31;68092;51.982;5.680;2024-01-27T11:14:31;9.6;59.4
78767;SHT31;68092;51.982;5.680;2024-01-27T11:16:59;9.6;59.3
78767;SHT31;68092;51.982;5.680;2024-01-27T11:19:29;9.7;59.3
78767;SHT31;68092;51.982;5.680;2024-01-27T11:22:05;9.7;59.5
78767;SHT31;68092;51.982;5.680;2024-01-27T11:24:34;9.7;59.3
78767;SHT31;68092;51.982;5.680;2024-01-27T11:27:04;9.7;59.3
78767;SHT31;68092;51.982;5.680;2024-01-27T11:29:34;9.8;59.3
78767;SHT31;68092;51.982;5.680;2024-01-27T11:32:03;9.8;59.3
78767;SHT31;68092;51.982;5.680;2024-01-27T11:34:42;9.8;59.3
78767;SHT31;68092;51.982;5.680;2024-01-27T11:37:13;9.8;59.4
78767;SHT31;68092;51.982;5.680;2024-01-27T11:39:45;9.9;59.2
78767;SHT31;68092;51.982;5.680;2024-01-27T11:42:14;9.9;59.3
78767;SHT31;68092;51.982;5.680;2024-01-27T11:44:43;9.9;59.1
78767;SHT31;68092;51.982;5.680;2024-01-27T11:47:19;9.9;59.2
78767;SHT31;68092;51.982;5.680;2024-01-27T11:49:54;9.9;59.3
78767;SHT31;68092;51.982;5.680;2024-01-27T11:52:25;10.0;59.1
78767;SHT31;68092;51.982;5.680;2024-01-27T11:54:57;10.0;59.0
78767;SHT31;68092;51.982;5.680;2024-01-27T11:57:27;10.0;59.0
78767;SHT31;68092;51.982;5.680;2024-01-27T11:59:57;10.1;58.8
78767;SHT31;68092;51.982;5.680;2024-01-27T12:02:26;10.1;58.6
78767;SHT31;68092;51.982;5.680;2024-01-27T12:04:55;10.1;58.3
78767;SHT31;68092;51.982;5.680;2024-01-27T12:07:26;10.2;57.9
78767;SHT31;68092;51.982;5.680;2024-01-27T12:09:55;10.2;57.7
78767;SHT31;68092;51.982;5.680;2024-01-27T12:12:23;10.2;57.7
78767;SHT31;68092;51.982;5.680;2024-01-27T12:14:52;10.2;57.5
78767;SHT31;68092;51.982;5.680;2024-01-27T12:17:22;10.2;57.7
78767;SHT31;68092;51.982;5.680;2024-01-27T12:19:52;10.3;57.4
78767;SHT31;68092;51.982;5.680;2024-01-27T12:22:26;10.3;57.3
78767;SHT31;68092;51.982;5.680;2024-01-27T12:25:09;10.3;57.1
78767;SHT31;68092;51.982;5.680;2024-01-27T12:27:41;10.3;57.1
78767;SHT31;68092;51.982;5.680;2024-01-27T12:30:10;10.4;57.2
78767;SHT31;68092;51.982;5.680;2024-01-27T12:32:40;10.4;57.4
78767;SHT31;68092;51.982;5.680;2024-01-27T12:35:09;10.4;56.9
78767;SHT31;68092;51.982;5.680;2024-01-27T12:37:38;10.4;57.1
78767;SHT31;68092;51.982;5.680;2024-01-27T12:40:20;10.4;57.3
78767;SHT31;68092;51.982;5.680;2024-01-27T12:42:51;10.4;56.8
78767;SHT31;68092;51.982;5.680;2024-01-27T12:45:20;10.5;56.8
78767;SHT31;68092;51.982;5.680;2024-01-27T12:47:49;10.5;57.0
78767;SHT31;68092;51.982;5.680;2024-01-27T12:50:18;10.5;57.0
78767;SHT31;68092;51.982;5.680;2024-01-27T12:52:46;10.5;57.0
78767;SHT31;68092;51.982;5.680;2024-01-27T12:55:16;10.5;56.8
78767;SHT31;68092;51.982;5.680;2024-01-27T12:57:46;10.5;56.9
78767;SHT31;68092;51.982;5.680;2024-01-27T13:00:15;10.5;56.9
78767;SHT31;68092;51.982;5.680;2024-01-27T13:02:44;10.5;56.8
78767;SHT31;68092;51.982;5.680;2024-01-27T13:05:14;10.6;56.9
78767;SHT31;68092;51.982;5.680;2024-01-27T13:07:42;10.6;56.9
78767;SHT31;68092;51.982;5.680;2024-01-27T13:10:13;10.6;56.8
78767;SHT31;68092;51.982;5.680;2024-01-27T13:12:42;10.6;56.6
78767;SHT31;68092;51.982;5.680;2024-01-27T13:15:15;10.6;56.7
78767;SHT31;68092;51.982;5.680;2024-01-27T13:17:45;10.7;56.8
78767;SHT31;68092;51.982;5.680;2024-01-27T13:20:14;10.7;56.9
78767;SHT31;68092;51.982;5.680;2024-01-27T13:22:44;10.7;56.9
78767;SHT31;68092;51.982;5.680;2024-01-27T13:25:13;10.7;56.8
78767;SHT31;68092;51.982;5.680;2024-01-27T13:27:41;10.7;56.7
78767;SHT31;68092;51.982;5.680;2024-01-27T13:30:13;10.8;56.7
78767;SHT31;68092;51.982;5.680;2024-01-27T13:32:44;10.8;56.8
78767;SHT31;68092;51.982;5.680;2024-01-27T13:35:13;10.8;56.7
78767;SHT31;68092;51.982;5.680;2024-01-27T13:37:44;10.8;56.4
78767;SHT31;68092;51.982;5.680;2024-01-27T13:40:15;10.9;56.1
78767;SHT31;68092;51.982;5.680;2024-01-27T13:42:44;10.9;56.2
78767;SHT31;68092;51.982;5.680;2024-01-27T13:45:13;10.9;55.7
78767;SHT31;68092;51.982;5.680;2024-01-27T13:47:42;10.9;56.1
78767;SHT31;68092;51.982;5.680;2024-01-27T13:50:11;10.9;56.1
78767;SHT31;68092;51.982;5.680;2024-01-27T13:52:40;10.9;56.0
78767;SHT31;68092;51.982;5.680;2024-01-27T13:55:12;10.9;55.0
78767;SHT31;68092;51.982;5.680;2024-01-27T13:57:41;11.0;55.8
78767;SHT31;68092;51.982;5.680;2024-01-27T14:00:11;11.0;54.9
78767;SHT31;68092;51.982;5.680;2024-01-27T14:02:41;11.0;55.3
78767;SHT31;68092;51.982;5.680;2024-01-27T14:05:10;11.0;55.0
78767;SHT31;68092;51.982;5.680;2024-01-27T14:07:39;11.1;54.8
78767;SHT31;68092;51.982;5.680;2024-01-27T14:10:08;11.1;54.4
78767;SHT31;68092;51.982;5.680;2024-01-27T14:12:36;11.1;54.7
78767;SHT31;68092;51.982;5.680;2024-01-27T14:15:06;11.1;54.8
78767;SHT31;68092;51.982;5.680;2024-01-27T14:17:35;11.1;54.5
78767;SHT31;68092;51.982;5.680;2024-01-27T14:20:05;11.1;54.6
78767;SHT31;68092;51.982;5.680;2024-01-27T14:22:35;11.1;54.8
78767;SHT31;68092;51.982;5.680;2024-01-27T14:25:04;11.1;54.3
78767;SHT31;68092;51.982;5.680;2024-01-27T14:27:36;11.1;54.4
78767;SHT31;68092;51.982;5.680;2024-01-27T14:30:05;11.1;54.2
78767;SHT31;68092;51.982;5.680;2024-01-27T14:32:34;11.1;54.4
78767;SHT31;68092;51.982;5.680;2024-01-27T14:35:05;11.1;54.5
78767;SHT31;68092;51.982;5.680;2024-01-27T14:37:34;11.2;54.4
78767;SHT31;68092;51.982;5.680;2024-01-27T14:40:04;11.2;54.5
78767;SHT31;68092;51.982;5.680;2024-01-27T14:42:35;11.2;54.0
78767;SHT31;68092;51.982;5.680;2024-01-27T14:45:07;11.2;54.4
78767;SHT31;68092;51.982;5.680;2024-01-27T14:47:36;11.2;54.0
78767;SHT31;68092;51.982;5.680;2024-01-27T14:50:05;11.2;53.9
78767;SHT31;68092;51.982;5.680;2024-01-27T14:52:36;11.3;53.7
78767;SHT31;68092;51.982;5.680;2024-01-27T14:55:05;11.3;53.6
78767;SHT31;68092;51.982;5.680;2024-01-27T14:57:34;11.3;53.6
78767;SHT31;68092;51.982;5.680;2024-01-27T15:00:03;11.3;53.5
78767;SHT31;68092;51.982;5.680;2024-01-27T15:02:32;11.3;53.7
78767;SHT31;68092;51.982;5.680;2024-01-27T15:05:01;11.3;53.6
78767;SHT31;68092;51.982;5.680;2024-01-27T15:07:30;11.3;53.7
78767;SHT31;68092;51.982;5.680;2024-01-27T15:09:58;11.3;54.0
78767;SHT31;68092;51.982;5.680;2024-01-27T15:12:26;11.4;53.6
78767;SHT31;68092;51.982;5.680;2024-01-27T15:14:57;11.3;53.7
78767;SHT31;68092;51.982;5.680;2024-01-27T15:17:27;11.3;54.2
78767;SHT31;68092;51.982;5.680;2024-01-27T15:19:56;11.3;54.1
78767;SHT31;68092;51.982;5.680;2024-01-27T15:22:25;11.3;54.0
78767;SHT31;68092;51.982;5.680;2024-01-27T15:24:56;11.3;54.5
78767;SHT31;68092;51.982;5.680;2024-01-27T15:27:25;11.3;54.4
78767;SHT31;68092;51.982;5.680;2024-01-27T15:29:54;11.3;54.5
78767;SHT31;68092;51.982;5.680;2024-01-27T15:32:22;11.3;54.5
78767;SHT31;68092;51.982;5.680;2024-01-27T15:34:53;11.3;54.4
78767;SHT31;68092;51.982;5.680;2024-01-27T15:37:24;11.3;54.3
78767;SHT31;68092;51.982;5.680;2024-01-27T15:39:52;11.3;54.6
78767;SHT31;68092;51.982;5.680;2024-01-27T15:42:21;11.3;54.5
78767;SHT31;68092;51.982;5.680;2024-01-27T15:44:50;11.3;54.6
78767;SHT31;68092;51.982;5.680;2024-01-27T15:47:19;11.3;54.5
78767;SHT31;68092;51.982;5.680;2024-01-27T15:49:48;11.3;54.6
78767;SHT31;68092;51.982;5.680;2024-01-27T15:52:22;11.3;54.3
78767;SHT31;68092;51.982;5.680;2024-01-27T15:54:50;11.3;54.4
78767;SHT31;68092;51.982;5.680;2024-01-27T15:57:21;11.3;54.3
78767;SHT31;68092;51.982;5.680;2024-01-27T15:59:49;11.3;54.3
78767;SHT31;68092;51.982;5.680;2024-01-27T16:02:18;11.3;54.3
78767;SHT31;68092;51.982;5.680;2024-01-27T16:04:47;11.2;54.1
78767;SHT31;68092;51.982;5.680;2024-01-27T16:07:15;11.2;54.0
78767;SHT31;68092;51.982;5.680;2024-01-27T16:09:47;11.2;53.8
78767;SHT31;68092;51.982;5.680;2024-01-27T16:12:17;11.2;53.8
78767;SHT31;68092;51.982;5.680;2024-01-27T16:14:46;11.2;53.5
78767;SHT31;68092;51.982;5.680;2024-01-27T16:17:18;11.1;53.4
78767;SHT31;68092;51.982;5.680;2024-01-27T16:19:48;11.1;53.3
78767;SHT31;68092;51.982;5.680;2024-01-27T16:22:17;11.1;53.2
78767;SHT31;68092;51.982;5.680;2024-01-27T16:24:49;11.1;53.1